createdAt,value
2018-11-28T00:00:33.101Z,2.40
2018-11-28T00:03:05.766Z,2.20
2018-11-28T00:05:36.051Z,2.40
2018-11-28T00:08:11.881Z,2.67
2018-11-28T00:10:42.270Z,2.30
2018-11-28T00:13:12.563Z,2.23
2018-11-28T00:15:42.953Z,2.33
2018-11-28T00:18:13.335Z,2.43
2018-11-28T00:20:43.587Z,2.33
2018-11-28T00:23:13.996Z,2.70
2018-11-28T00:25:44.477Z,2.40
2018-11-28T00:28:14.902Z,2.57
2018-11-28T00:30:45.097Z,2.27
2018-11-28T00:33:15.720Z,2.20
2018-11-28T00:35:46.043Z,2.67
2018-11-28T00:38:16.595Z,1.80
2018-11-28T00:40:47.090Z,1.93
2018-11-28T00:43:17.478Z,1.77
2018-11-28T00:45:47.907Z,2.03
2018-11-28T00:48:18.221Z,1.63
2018-11-28T00:50:48.511Z,1.93
2018-11-28T00:53:18.840Z,1.57
2018-11-28T00:55:49.590Z,1.87
2018-11-28T00:58:20.277Z,1.60
2018-11-28T01:00:50.632Z,1.70
2018-11-28T01:03:21.015Z,1.80
2018-11-28T01:05:51.596Z,1.43
2018-11-28T01:08:21.978Z,2.00
2018-11-28T01:10:52.887Z,1.43
2018-11-28T01:13:23.001Z,1.40
2018-11-28T01:15:53.572Z,1.60
2018-11-28T01:18:23.774Z,1.40
2018-11-28T01:20:54.086Z,1.70
2018-11-28T01:23:24.263Z,1.40
2018-11-28T01:25:54.564Z,1.80
2018-11-28T01:28:24.655Z,1.50
2018-11-28T01:30:54.971Z,1.83
2018-11-28T01:33:25.135Z,1.70
2018-11-28T01:35:55.344Z,1.57
2018-11-28T01:38:25.771Z,1.57
2018-11-28T01:40:55.986Z,1.40
2018-11-28T01:43:26.849Z,1.50
2018-11-28T01:45:57.235Z,1.30
2018-11-28T01:48:27.694Z,1.50
2018-11-28T01:50:57.961Z,1.30
2018-11-28T01:53:28.450Z,1.40
2018-11-28T01:55:58.663Z,1.17
2018-11-28T01:58:29.106Z,1.37
2018-11-28T02:00:59.467Z,1.50
2018-11-28T02:03:30.435Z,1.50
2018-11-28T02:06:00.895Z,1.60
2018-11-28T02:08:31.370Z,1.87
2018-11-28T02:11:02.241Z,1.60
2018-11-28T02:13:32.569Z,1.80
2018-11-28T02:16:03.027Z,1.50
2018-11-28T02:18:33.432Z,1.70
2018-11-28T02:21:03.840Z,1.50
2018-11-28T02:23:33.926Z,1.50
2018-11-28T02:26:04.177Z,1.47
2018-11-28T02:28:34.546Z,1.50
2018-11-28T02:31:04.898Z,1.50
2018-11-28T02:33:35.137Z,1.40
2018-11-28T02:36:05.592Z,1.50
2018-11-28T02:38:35.980Z,1.27
2018-11-28T02:41:06.464Z,1.40
2018-11-28T02:43:36.763Z,1.60
2018-11-28T02:46:41.242Z,1.20
2018-11-28T02:49:11.658Z,1.37
2018-11-28T02:51:41.953Z,1.40
2018-11-28T02:54:12.375Z,1.50
2018-11-28T02:56:42.749Z,1.83
2018-11-28T02:59:13.143Z,1.40
2018-11-28T03:01:43.515Z,1.73
2018-11-28T03:04:13.864Z,1.50
2018-11-28T03:06:44.118Z,1.40
2018-11-28T03:09:14.480Z,1.30
2018-11-28T03:11:44.889Z,1.50
2018-11-28T03:14:15.342Z,1.77
2018-11-28T03:16:45.725Z,1.50
2018-11-28T03:19:15.972Z,1.57
2018-11-28T03:21:46.308Z,1.73
2018-11-28T03:24:16.526Z,1.90
2018-11-28T03:26:46.784Z,1.50
2018-11-28T03:29:17.127Z,2.00
2018-11-28T03:31:47.585Z,1.73
2018-11-28T03:34:17.964Z,1.70
2018-11-28T03:36:48.304Z,1.50
2018-11-28T03:39:18.593Z,1.70
2018-11-28T03:41:48.829Z,2.07
2018-11-28T03:44:19.126Z,1.70
2018-11-28T03:46:50.319Z,1.50
2018-11-28T03:49:20.678Z,1.70
2018-11-28T03:51:50.851Z,2.17
2018-11-28T03:54:21.080Z,1.60
2018-11-28T03:56:51.429Z,2.00
2018-11-28T03:59:21.723Z,1.80
2018-11-28T04:01:52.014Z,1.67
2018-11-28T04:04:22.352Z,2.00
2018-11-28T04:06:52.748Z,2.10
2018-11-28T04:09:23.221Z,2.17
2018-11-28T04:11:53.423Z,2.67
2018-11-28T04:14:23.794Z,2.90
2018-11-28T04:16:54.188Z,2.97
2018-11-28T04:19:24.410Z,2.63
2018-11-28T04:21:54.685Z,3.13
2018-11-28T04:24:25.046Z,3.07
2018-11-28T04:26:55.330Z,3.20
2018-11-28T04:29:25.581Z,2.20
2018-11-28T04:31:56.033Z,2.27
2018-11-28T04:34:26.265Z,2.40
2018-11-28T04:36:56.501Z,2.07
2018-11-28T04:39:26.842Z,2.40
2018-11-28T04:41:57.051Z,2.17
2018-11-28T04:44:27.414Z,1.60
2018-11-28T04:46:57.702Z,1.80
2018-11-28T04:49:27.730Z,1.90
2018-11-28T04:51:58.072Z,1.70
2018-11-28T04:54:28.346Z,2.27
2018-11-28T04:56:58.781Z,1.97
2018-11-28T04:59:29.402Z,1.90
2018-11-28T05:01:59.542Z,2.10
2018-11-28T05:04:29.772Z,2.43
2018-11-28T05:07:31.217Z,2.30
2018-11-28T05:10:01.429Z,2.57
2018-11-28T05:12:31.763Z,2.37
2018-11-28T05:15:02.246Z,2.30
2018-11-28T05:17:32.453Z,2.50
2018-11-28T05:20:02.937Z,2.50
2018-11-28T05:22:33.202Z,2.53
2018-11-28T05:25:03.726Z,2.43
2018-11-28T05:27:34.244Z,2.67
2018-11-28T05:30:04.882Z,2.50
2018-11-28T05:32:35.670Z,2.63
2018-11-28T05:35:06.759Z,2.80
2018-11-28T05:37:37.117Z,3.17
2018-11-28T05:40:09.297Z,2.60
2018-11-28T05:42:39.809Z,2.77
2018-11-28T05:45:11.756Z,2.70
2018-11-28T05:47:42.071Z,2.60
2018-11-28T05:50:13.189Z,2.80
2018-11-28T05:52:43.454Z,3.17
2018-11-28T05:55:14.492Z,3.10
2018-11-28T05:57:44.842Z,2.70
2018-11-28T06:00:23.610Z,2.70
2018-11-28T06:02:54.090Z,2.60
2018-11-28T06:05:24.346Z,2.70
2018-11-28T06:07:55.239Z,2.50
2018-11-28T06:10:25.684Z,2.40
2018-11-28T06:12:55.947Z,2.80
2018-11-28T06:15:26.207Z,2.27
2018-11-28T06:17:56.697Z,2.43
2018-11-28T06:20:27.047Z,2.20
2018-11-28T06:22:57.433Z,2.23
2018-11-28T06:25:27.669Z,2.50
2018-11-28T06:27:57.958Z,2.50
2018-11-28T06:30:28.652Z,2.40
2018-11-28T06:32:58.888Z,2.73
2018-11-28T06:35:29.223Z,2.50
2018-11-28T06:37:59.414Z,2.53
2018-11-28T06:40:30.054Z,2.67
2018-11-28T06:43:00.474Z,2.97
2018-11-28T06:45:30.554Z,2.70
2018-11-28T06:48:01.103Z,2.43
2018-11-28T06:50:31.493Z,2.40
2018-11-28T06:53:01.659Z,2.50
2018-11-28T06:55:32.402Z,2.70
2018-11-28T06:58:02.740Z,2.50
2018-11-28T07:00:33.057Z,2.50
2018-11-28T07:03:03.499Z,2.10
2018-11-28T07:05:34.234Z,2.67
2018-11-28T07:08:04.509Z,2.87
2018-11-28T07:10:34.824Z,2.80
2018-11-28T07:13:05.016Z,2.80
2018-11-28T07:15:35.253Z,2.80
2018-11-28T07:18:16.396Z,2.63
2018-11-28T07:20:46.582Z,2.50
2018-11-28T07:23:16.872Z,2.70
2018-11-28T07:25:47.060Z,3.07
2018-11-28T07:28:17.274Z,2.50
2018-11-28T07:30:47.681Z,2.47
2018-11-28T07:33:17.890Z,2.97
2018-11-28T07:35:48.131Z,2.90
2018-11-28T07:38:18.725Z,2.90
2018-11-28T07:40:48.940Z,3.23
2018-11-28T07:43:19.575Z,3.90
2018-11-28T07:45:51.066Z,3.37
2018-11-28T07:48:21.520Z,3.63
2018-11-28T07:50:51.743Z,3.70
2018-11-28T07:53:22.151Z,3.70
2018-11-28T07:55:52.221Z,3.40
2018-11-28T07:58:22.663Z,3.47
2018-11-28T08:00:52.767Z,3.70
2018-11-28T08:03:23.139Z,3.60
2018-11-28T08:05:53.947Z,3.37
2018-11-28T08:08:24.287Z,3.60
2018-11-28T08:10:54.692Z,3.40
2018-11-28T08:13:26.377Z,3.40
2018-11-28T08:15:55.421Z,3.67
2018-11-28T08:18:25.806Z,4.90
2018-11-28T08:20:56.212Z,4.40
2018-11-28T08:23:26.482Z,3.57
2018-11-28T08:25:56.787Z,3.37
2018-11-28T08:28:27.150Z,3.13
2018-11-28T08:30:57.357Z,2.60
2018-11-28T08:33:27.631Z,3.00
2018-11-28T08:35:57.921Z,2.60
2018-11-28T08:38:28.330Z,3.00
2018-11-28T08:40:58.675Z,5.40
2018-11-28T08:43:28.701Z,3.00
2018-11-28T08:45:59.026Z,4.77
2018-11-28T08:48:29.243Z,4.17
2018-11-28T08:50:59.417Z,3.50
2018-11-28T08:53:29.617Z,3.27
2018-11-28T08:56:00.081Z,3.00
2018-11-28T08:58:30.941Z,3.63
2018-11-28T09:01:01.341Z,3.40
2018-11-28T09:03:31.734Z,3.17
2018-11-28T09:06:02.153Z,2.87
2018-11-28T09:08:32.515Z,3.10
2018-11-28T09:11:02.926Z,3.30
2018-11-28T09:13:33.302Z,2.80
2018-11-28T09:16:03.597Z,3.03
2018-11-28T09:18:33.977Z,3.50
2018-11-28T09:21:04.288Z,3.10
2018-11-28T09:23:34.529Z,2.93
2018-11-28T09:26:04.951Z,2.97
2018-11-28T09:28:35.373Z,2.60
2018-11-28T09:31:05.785Z,3.27
2018-11-28T09:33:36.212Z,2.73
2018-11-28T09:36:06.841Z,2.80
2018-11-28T09:38:37.461Z,2.90
2018-11-28T09:41:07.838Z,3.10
2018-11-28T09:43:38.437Z,3.23
2018-11-28T09:46:08.649Z,3.27
2018-11-28T09:48:38.922Z,3.43
2018-11-28T09:51:09.403Z,2.80
2018-11-28T09:53:39.650Z,3.53
2018-11-28T09:56:09.972Z,3.77
2018-11-28T09:58:40.149Z,3.60
2018-11-28T10:01:10.449Z,3.80
2018-11-28T10:03:40.740Z,4.17
2018-11-28T10:06:10.904Z,3.87
2018-11-28T10:08:41.327Z,3.70
2018-11-28T10:11:11.692Z,3.30
2018-11-28T10:13:42.101Z,3.40
2018-11-28T10:16:12.315Z,3.47
2018-11-28T10:18:42.530Z,4.10
2018-11-28T10:21:12.803Z,3.20
2018-11-28T10:23:43.271Z,3.20
2018-11-28T10:26:13.544Z,5.90
2018-11-28T10:28:43.839Z,3.30
2018-11-28T10:31:14.049Z,3.30
2018-11-28T10:33:44.318Z,3.00
2018-11-28T10:36:14.496Z,3.60
2018-11-28T10:38:44.684Z,4.00
2018-11-28T10:41:15.223Z,3.80
2018-11-28T10:43:45.474Z,4.77
2018-11-28T10:46:15.798Z,5.47
2018-11-28T10:48:45.913Z,4.53
2018-11-28T10:51:16.649Z,4.43
2018-11-28T10:53:47.144Z,4.33
2018-11-28T10:56:17.742Z,4.90
2018-11-28T10:58:48.089Z,4.40
2018-11-28T11:01:26.124Z,3.90
2018-11-28T11:04:00.573Z,4.07
2018-11-28T11:06:36.216Z,3.83
2018-11-28T11:09:14.201Z,3.97
2018-11-28T11:11:50.048Z,3.93
2018-11-28T11:14:25.503Z,3.40
2018-11-28T11:16:55.901Z,3.60
2018-11-28T11:19:26.184Z,3.73
2018-11-28T11:21:56.607Z,3.53
2018-11-28T11:24:26.912Z,3.43
2018-11-28T11:26:57.413Z,4.30
2018-11-28T11:29:27.492Z,3.47
2018-11-28T11:31:57.947Z,3.50
2018-11-28T11:34:28.278Z,3.83
2018-11-28T11:36:58.518Z,3.50
2018-11-28T11:39:28.959Z,3.80
2018-11-28T11:41:59.247Z,4.00
2018-11-28T11:44:29.558Z,4.30
2018-11-28T11:46:59.824Z,4.43
2018-11-28T11:49:30.234Z,4.57
2018-11-28T11:52:00.456Z,4.37
2018-11-28T11:54:31.310Z,4.10
2018-11-28T11:57:00.904Z,4.40
2018-11-28T11:59:31.193Z,4.13
2018-11-28T12:02:01.883Z,3.73
2018-11-28T12:04:32.165Z,4.03
2018-11-28T12:07:02.722Z,3.20
2018-11-28T12:09:33.025Z,3.20
2018-11-28T12:12:03.308Z,3.53
2018-11-28T12:14:33.533Z,2.63
2018-11-28T12:17:03.862Z,2.93
2018-11-28T12:19:34.276Z,3.00
2018-11-28T12:22:04.554Z,2.70
2018-11-28T12:24:34.833Z,3.53
2018-11-28T12:27:05.378Z,3.50
2018-11-28T12:29:35.809Z,3.60
2018-11-28T12:32:07.288Z,4.20
2018-11-28T12:34:36.669Z,4.07
2018-11-28T12:37:07.645Z,3.60
2018-11-28T12:39:37.939Z,4.30
2018-11-28T12:42:08.301Z,3.70
2018-11-28T12:44:38.715Z,3.70
2018-11-28T12:47:09.058Z,3.53
2018-11-28T12:49:39.695Z,3.50
2018-11-28T12:52:09.962Z,3.43
2018-11-28T12:54:40.427Z,3.63
2018-11-28T12:57:10.751Z,3.53
2018-11-28T12:59:40.940Z,3.60
2018-11-28T13:02:11.241Z,3.30
2018-11-28T13:04:41.571Z,3.60
2018-11-28T13:07:11.861Z,3.87
2018-11-28T13:09:42.164Z,3.47
2018-11-28T13:12:12.441Z,3.07
2018-11-28T13:14:42.535Z,3.57
2018-11-28T13:17:12.878Z,3.73
2018-11-28T13:19:43.589Z,4.37
2018-11-28T13:22:13.871Z,5.50
2018-11-28T13:24:44.095Z,5.43
2018-11-28T13:27:14.709Z,4.47
2018-11-28T13:29:45.075Z,4.83
2018-11-28T13:32:15.510Z,5.20
2018-11-28T13:34:45.767Z,4.63
2018-11-28T13:37:16.282Z,4.77
2018-11-28T13:39:46.623Z,5.10
2018-11-28T13:42:17.264Z,5.13
2018-11-28T13:44:48.282Z,5.47
2018-11-28T13:47:18.778Z,4.40
2018-11-28T13:49:49.142Z,5.00
2018-11-28T13:52:20.210Z,5.60
2018-11-28T13:55:37.964Z,5.60
2018-11-28T13:57:21.054Z,5.63
2018-11-28T13:59:51.098Z,5.07
2018-11-28T14:02:21.510Z,5.73
2018-11-28T14:04:51.795Z,5.93
2018-11-28T14:07:22.113Z,5.37
2018-11-28T14:09:52.696Z,4.37
2018-11-28T14:12:22.985Z,4.60
2018-11-28T14:14:53.570Z,4.90
2018-11-28T14:17:23.658Z,5.40
2018-11-28T14:19:54.207Z,5.27
2018-11-28T14:22:24.442Z,5.33
2018-11-28T14:24:54.637Z,5.27
2018-11-28T14:27:25.610Z,6.03
2018-11-28T14:29:55.984Z,5.33
2018-11-28T14:32:26.396Z,5.80
2018-11-28T14:34:56.626Z,6.13
2018-11-28T14:37:26.869Z,6.27
2018-11-28T14:39:57.197Z,6.33
2018-11-28T14:42:27.768Z,5.60
2018-11-28T14:44:58.077Z,5.17
2018-11-28T14:47:28.378Z,5.30
2018-11-28T14:49:58.674Z,5.07
2018-11-28T14:52:29.114Z,5.13
2018-11-28T14:54:59.437Z,6.10
2018-11-28T14:57:29.618Z,6.17
2018-11-28T14:59:59.815Z,6.10
2018-11-28T15:02:30.051Z,6.67
2018-11-28T15:05:00.292Z,6.23
2018-11-28T15:07:30.645Z,6.60
2018-11-28T15:10:01.049Z,6.70
2018-11-28T15:12:31.949Z,7.30
2018-11-28T15:15:02.642Z,8.97
2018-11-28T15:17:32.984Z,7.13
2018-11-28T15:20:03.419Z,7.23
2018-11-28T15:22:33.809Z,8.40
2018-11-28T15:25:05.525Z,9.30
2018-11-28T15:27:35.869Z,9.13
2018-11-28T15:30:07.220Z,10.33
2018-11-28T15:32:37.433Z,8.03
2018-11-28T15:35:07.724Z,7.17
2018-11-28T15:37:38.154Z,7.40
2018-11-28T15:40:08.999Z,7.50
2018-11-28T15:42:39.455Z,9.10
2018-11-28T15:45:10.278Z,10.03
2018-11-28T15:47:40.558Z,9.33
2018-11-28T15:50:11.040Z,8.60
2018-11-28T15:52:41.622Z,8.47
2018-11-28T15:55:13.189Z,10.60
2018-11-28T15:57:43.723Z,8.10
2018-11-28T16:00:20.026Z,9.30
2018-11-28T16:02:50.352Z,8.70
2018-11-28T16:05:20.664Z,8.00
2018-11-28T16:07:50.892Z,6.77
2018-11-28T16:10:26.381Z,6.57
2018-11-28T16:12:56.697Z,6.00
2018-11-28T16:15:29.438Z,6.87
2018-11-28T16:17:59.754Z,6.00
2018-11-28T16:20:30.189Z,6.93
2018-11-28T16:23:04.360Z,6.73
2018-11-28T16:25:31.021Z,7.13
2018-11-28T16:28:01.397Z,7.57
2018-11-28T16:30:31.828Z,7.47
2018-11-28T16:33:02.348Z,8.30
2018-11-28T16:35:32.809Z,8.37
2018-11-28T16:38:02.987Z,8.90
2018-11-28T16:40:33.330Z,7.87
2018-11-28T16:43:03.802Z,6.63
2018-11-28T16:45:34.147Z,6.40
2018-11-28T16:48:04.740Z,6.87
2018-11-28T16:50:35.316Z,6.63
2018-11-28T16:53:05.962Z,6.73
2018-11-28T16:55:36.254Z,6.87
2018-11-28T16:58:07.494Z,7.17
2018-11-28T17:00:39.960Z,10.10
2018-11-28T17:03:10.318Z,10.00
2018-11-28T17:05:40.806Z,9.07
2018-11-28T17:08:11.621Z,9.00
2018-11-28T17:10:42.104Z,7.50
2018-11-28T17:13:12.506Z,8.80
2018-11-28T17:15:42.866Z,10.17
2018-11-28T17:18:13.254Z,8.77
2018-11-28T17:20:43.925Z,8.63
2018-11-28T17:23:14.531Z,8.27
2018-11-28T17:25:44.877Z,9.87
2018-11-28T17:28:15.212Z,6.77
2018-11-28T17:30:45.773Z,7.37
2018-11-28T17:33:16.317Z,8.27
2018-11-28T17:35:46.655Z,8.07
2018-11-28T17:38:16.838Z,6.53
2018-11-28T17:40:47.154Z,7.00
2018-11-28T17:43:17.469Z,7.60
2018-11-28T17:45:47.840Z,7.30
2018-11-28T17:48:18.262Z,7.40
2018-11-28T17:50:48.601Z,6.63
2018-11-28T17:53:18.864Z,6.93
2018-11-28T17:55:52.104Z,6.90
2018-11-28T17:58:22.607Z,7.20
2018-11-28T18:00:52.970Z,6.70
2018-11-28T18:03:23.389Z,7.00
2018-11-28T18:05:53.748Z,6.83
2018-11-28T18:08:24.074Z,6.70
2018-11-28T18:10:55.243Z,6.63
2018-11-28T18:13:25.884Z,7.50
2018-11-28T18:15:56.347Z,7.13
2018-11-28T18:18:27.265Z,7.77
2018-11-28T18:20:57.539Z,8.53
2018-11-28T18:23:28.073Z,7.70
2018-11-28T18:25:58.432Z,7.77
2018-11-28T18:28:28.727Z,7.93
2018-11-28T18:30:59.080Z,8.07
2018-11-28T18:33:29.305Z,9.83
2018-11-28T18:35:59.672Z,10.57
2018-11-28T18:38:30.106Z,8.50
2018-11-28T18:41:00.599Z,8.33
2018-11-28T18:43:30.884Z,8.13
2018-11-28T18:46:01.629Z,8.63
2018-11-28T18:48:31.792Z,8.73
2018-11-28T18:51:02.244Z,6.83
2018-11-28T18:53:32.553Z,8.00
2018-11-28T18:56:03.033Z,6.53
2018-11-28T18:58:33.293Z,7.17
2018-11-28T19:01:03.730Z,9.47
2018-11-28T19:03:34.255Z,8.13
2018-11-28T19:06:04.663Z,7.37
2018-11-28T19:08:34.929Z,7.73
2018-11-28T19:11:05.387Z,8.03
2018-11-28T19:13:35.869Z,7.67
2018-11-28T19:16:06.763Z,7.00
2018-11-28T19:18:37.119Z,7.50
2018-11-28T19:21:07.677Z,7.83
2018-11-28T19:23:37.908Z,7.30
2018-11-28T19:26:09.415Z,9.00
2018-11-28T19:28:39.742Z,7.63
2018-11-28T19:31:09.923Z,10.87
2018-11-28T19:33:40.368Z,17.87
2018-11-28T19:36:10.846Z,11.83
2018-11-28T19:38:41.041Z,8.73
2018-11-28T19:41:20.737Z,7.90
2018-11-28T19:43:51.125Z,7.17
2018-11-28T19:46:21.488Z,7.90
2018-11-28T19:48:51.809Z,6.30
2018-11-28T19:51:22.320Z,7.47
2018-11-28T19:53:52.741Z,7.33
2018-11-28T19:56:23.213Z,7.80
2018-11-28T19:58:53.529Z,7.73
2018-11-28T20:01:23.969Z,7.50
2018-11-28T20:06:24.625Z,7.40
2018-11-28T20:08:55.108Z,7.70
2018-11-28T20:11:25.395Z,7.47
2018-11-28T20:13:55.895Z,8.00
2018-11-28T20:16:26.340Z,7.80
2018-11-28T20:18:56.752Z,8.10
2018-11-28T20:21:27.025Z,7.20
2018-11-28T20:23:57.600Z,7.90
2018-11-28T20:26:28.073Z,7.27
2018-11-28T20:28:58.409Z,8.17
2018-11-28T20:31:28.751Z,6.57
2018-11-28T20:33:58.879Z,7.53
2018-11-28T20:36:29.380Z,7.97
2018-11-28T20:39:00.521Z,7.87
2018-11-28T20:41:30.938Z,7.80
2018-11-28T20:44:01.299Z,7.63
2018-11-28T20:46:31.719Z,7.97
2018-11-28T20:49:01.814Z,8.13
2018-11-28T20:51:32.412Z,7.40
2018-11-28T20:54:02.782Z,7.73
2018-11-28T20:56:33.300Z,6.80
2018-11-28T20:59:03.809Z,7.70
2018-11-28T21:01:35.086Z,7.57
2018-11-28T21:04:05.464Z,7.50
2018-11-28T21:06:35.838Z,8.33
2018-11-28T21:09:10.137Z,7.13
2018-11-28T21:11:40.381Z,6.83
2018-11-28T21:14:10.799Z,7.17
2018-11-28T21:16:41.065Z,6.23
2018-11-28T21:19:11.428Z,6.50
2018-11-28T21:21:41.899Z,7.47
2018-11-28T21:24:12.368Z,6.90
2018-11-28T21:26:42.953Z,7.20
2018-11-28T21:29:13.483Z,6.83
2018-11-28T21:31:43.608Z,7.33
2018-11-28T21:34:13.976Z,7.63
2018-11-28T21:36:44.358Z,6.60
2018-11-28T21:39:14.705Z,7.53
2018-11-28T21:41:45.195Z,7.00
2018-11-28T21:44:15.592Z,7.10
2018-11-28T21:46:45.813Z,6.90
2018-11-28T21:49:17.329Z,6.90
2018-11-28T21:51:47.778Z,6.27
2018-11-28T21:54:18.018Z,7.03
2018-11-28T21:56:48.551Z,6.87
2018-11-28T21:59:19.371Z,6.80
2018-11-28T22:01:50.066Z,6.50
2018-11-28T22:04:21.126Z,7.40
2018-11-28T22:06:51.564Z,7.23
2018-11-28T22:09:22.012Z,6.80
2018-11-28T22:11:52.365Z,6.47
2018-11-28T22:14:22.799Z,6.37
2018-11-28T22:16:53.016Z,6.70
2018-11-28T22:19:23.329Z,7.10
2018-11-28T22:21:53.657Z,5.77
2018-11-28T22:24:24.405Z,5.93
2018-11-28T22:26:54.801Z,6.20
2018-11-28T22:29:25.042Z,6.00
2018-11-28T22:31:55.665Z,6.30
2018-11-28T22:34:26.221Z,5.93
2018-11-28T22:36:56.425Z,6.47
2018-11-28T22:39:26.664Z,5.83
2018-11-28T22:41:57.002Z,6.00
2018-11-28T22:44:27.362Z,5.83
2018-11-28T22:46:57.557Z,5.57
2018-11-28T22:49:28.080Z,5.60
2018-11-28T22:51:58.402Z,5.67
2018-11-28T22:54:28.643Z,5.23
2018-11-28T22:56:59.198Z,5.73
2018-11-28T22:59:29.637Z,5.60
2018-11-28T23:03:05.903Z,4.93
2018-11-28T23:05:47.794Z,5.57
2018-11-28T23:08:18.772Z,5.20
2018-11-28T23:10:49.396Z,5.83
2018-11-28T23:13:22.068Z,5.73
2018-11-28T23:15:52.493Z,5.63
2018-11-28T23:18:23.159Z,5.67
2018-11-28T23:20:53.526Z,6.53
2018-11-28T23:23:23.859Z,5.73
2018-11-28T23:25:54.103Z,5.87
2018-11-28T23:28:24.338Z,5.73
2018-11-28T23:30:54.676Z,5.60
2018-11-28T23:33:25.640Z,5.63
2018-11-28T23:35:56.134Z,5.63
2018-11-28T23:41:27.363Z,6.10
2018-11-28T23:43:57.612Z,5.90
2018-11-28T23:46:28.061Z,5.57
2018-11-28T23:48:58.345Z,6.10
2018-11-28T23:51:28.852Z,5.87
2018-11-28T23:53:59.030Z,6.10
2018-11-28T23:56:29.426Z,6.10
2018-11-28T23:58:59.600Z,5.90
